createdAt,value
2022-12-28T00:01:40.231Z,99196.53
2022-12-28T00:04:09.902Z,99202.56
2022-12-28T00:06:39.360Z,99199.09
2022-12-28T00:09:12.692Z,99182.84
2022-12-28T00:11:42.140Z,99200.00
2022-12-28T00:14:11.302Z,99199.25
2022-12-28T00:16:41.994Z,99197.56
2022-12-28T00:19:19.233Z,99200.94
2022-12-28T00:22:00.998Z,99186.44
2022-12-28T00:24:37.242Z,99177.97
2022-12-28T00:27:06.488Z,99188.31
2022-12-28T00:29:35.594Z,99180.69
2022-12-28T00:32:04.947Z,99178.88
2022-12-28T00:34:34.081Z,99172.94
2022-12-28T00:37:10.213Z,99180.66
2022-12-28T00:39:42.985Z,99176.50
2022-12-28T00:42:15.768Z,99174.84
2022-12-28T00:44:45.200Z,99167.19
2022-12-28T00:47:14.278Z,99165.47
2022-12-28T00:49:49.407Z,99159.59
2022-12-28T00:55:04.749Z,99153.56
2022-12-28T00:57:37.023Z,99160.38
2022-12-28T01:00:18.005Z,99156.88
2022-12-28T01:02:47.392Z,99153.59
2022-12-28T01:05:17.090Z,99150.13
2022-12-28T01:07:46.447Z,99149.41
2022-12-28T01:10:18.159Z,99148.63
2022-12-28T01:12:52.522Z,99146.91
2022-12-28T01:15:22.852Z,99150.28
2022-12-28T01:17:52.192Z,99134.09
2022-12-28T01:20:21.647Z,99141.91
2022-12-28T01:22:51.022Z,99136.81
2022-12-28T01:25:22.109Z,99129.94
2022-12-28T01:30:35.277Z,99120.69
2022-12-28T01:33:08.428Z,99121.63
2022-12-28T01:35:47.718Z,99125.88
2022-12-28T01:38:16.906Z,99121.59
2022-12-28T01:40:47.962Z,99112.16
2022-12-28T01:43:29.691Z,99119.94
2022-12-28T01:45:58.991Z,99114.88
2022-12-28T01:48:28.765Z,99101.03
2022-12-28T01:50:58.923Z,99111.47
2022-12-28T01:53:29.010Z,99106.38
2022-12-28T01:56:06.810Z,99103.84
2022-12-28T01:58:37.291Z,99112.38
2022-12-28T02:01:07.299Z,99104.75
2022-12-28T02:03:37.210Z,99086.66
2022-12-28T02:06:14.298Z,99109.78
2022-12-28T02:09:02.401Z,99102.97
2022-12-28T02:11:34.773Z,99097.88
2022-12-28T02:14:04.757Z,99097.88
2022-12-28T02:16:33.883Z,99084.31
2022-12-28T02:19:03.821Z,99092.78
2022-12-28T02:21:45.728Z,99081.75
2022-12-28T02:24:37.789Z,99087.66
2022-12-28T02:27:15.939Z,99090.13
2022-12-28T02:30:08.294Z,99088.41
2022-12-28T02:32:49.175Z,99092.59
2022-12-28T02:35:26.479Z,99092.47
2022-12-28T02:38:02.164Z,99100.06
2022-12-28T02:40:41.480Z,99073.50
2022-12-28T02:43:10.872Z,99094.19
2022-12-28T02:45:57.030Z,99078.69
2022-12-28T02:48:39.497Z,99100.09
2022-12-28T02:51:31.680Z,99095.09
2022-12-28T02:54:40.769Z,99099.31
2022-12-28T02:57:20.846Z,99094.03
2022-12-28T03:00:04.057Z,99104.34
2022-12-28T03:02:58.099Z,99090.00
2022-12-28T03:05:48.768Z,99091.72
2022-12-28T03:11:10.162Z,99090.03
2022-12-28T03:13:50.013Z,99086.75
2022-12-28T03:16:27.636Z,99089.38
2022-12-28T03:19:17.099Z,99095.38
2022-12-28T03:22:01.271Z,99082.63
2022-12-28T03:27:38.504Z,99089.44
2022-12-28T03:30:30.077Z,99083.50
2022-12-28T03:33:01.461Z,99085.22
2022-12-28T03:35:44.001Z,99081.88
2022-12-28T03:38:26.797Z,99056.09
2022-12-28T03:41:03.395Z,99078.38
2022-12-28T03:43:41.939Z,99080.13
2022-12-28T03:46:29.799Z,99056.16
2022-12-28T03:49:01.357Z,99071.69
2022-12-28T03:51:38.966Z,99051.00
2022-12-28T03:54:16.774Z,99062.16
2022-12-28T03:56:54.608Z,99072.34
2022-12-28T03:59:29.300Z,99065.47
2022-12-28T04:01:59.764Z,99050.84
2022-12-28T04:04:36.005Z,99067.97
2022-12-28T04:07:07.355Z,99062.91
2022-12-28T04:09:36.719Z,99070.56
2022-12-28T04:12:06.635Z,99045.03
2022-12-28T04:15:01.177Z,98789.66
2022-12-28T04:17:32.663Z,99060.38
2022-12-28T04:20:02.019Z,99058.59
2022-12-28T04:22:34.549Z,99064.41
2022-12-28T04:25:05.666Z,99043.78
2022-12-28T04:27:36.874Z,99051.72
2022-12-28T04:30:19.026Z,99061.13
2022-12-28T04:32:48.521Z,99056.88
2022-12-28T04:35:17.731Z,99055.19
2022-12-28T04:37:58.792Z,99048.44
2022-12-28T04:40:28.021Z,99040.69
2022-12-28T04:42:57.170Z,99045.00
2022-12-28T04:45:26.366Z,99046.66
2022-12-28T04:47:58.555Z,99046.69
2022-12-28T04:53:12.786Z,99047.56
2022-12-28T04:55:42.065Z,99034.72
2022-12-28T04:58:11.162Z,99043.31
2022-12-28T05:00:45.625Z,99048.25
2022-12-28T05:03:19.744Z,99049.16
2022-12-28T05:05:48.946Z,99019.16
2022-12-28T05:08:20.028Z,99035.53
2022-12-28T05:10:56.100Z,99041.47
2022-12-28T05:13:25.638Z,99035.63
2022-12-28T05:15:55.268Z,99042.47
2022-12-28T05:18:24.723Z,99036.50
2022-12-28T05:21:00.998Z,99040.00
2022-12-28T05:23:39.324Z,99036.50
2022-12-28T05:26:10.502Z,99051.88
2022-12-28T05:28:40.063Z,99053.59
2022-12-28T05:31:12.551Z,99056.16
2022-12-28T05:33:42.297Z,99044.34
2022-12-28T05:36:18.998Z,99052.78
2022-12-28T05:38:50.554Z,99053.66
2022-12-28T05:41:26.749Z,99054.50
2022-12-28T05:43:56.551Z,99039.06
2022-12-28T05:46:28.049Z,99050.06
2022-12-28T05:51:41.620Z,99028.47
2022-12-28T05:54:12.677Z,99060.13
2022-12-28T05:56:49.846Z,99052.50
2022-12-28T05:59:19.185Z,99026.69
2022-12-28T06:01:48.680Z,99049.94
2022-12-28T06:04:20.205Z,99051.72
2022-12-28T06:07:00.442Z,99055.94
2022-12-28T06:09:32.866Z,99066.13
2022-12-28T06:12:04.330Z,99056.81
2022-12-28T06:14:34.264Z,99048.19
2022-12-28T06:17:03.530Z,99065.41
2022-12-28T06:19:32.789Z,99062.88
2022-12-28T06:22:02.225Z,99056.78
2022-12-28T06:24:33.391Z,99038.97
2022-12-28T06:27:02.526Z,99043.19
2022-12-28T06:29:31.774Z,99062.16
2022-12-28T06:32:01.317Z,99038.88
2022-12-28T06:34:30.546Z,99065.47
2022-12-28T06:37:00.109Z,99067.19
2022-12-28T06:39:29.725Z,99063.78
2022-12-28T06:42:01.170Z,99065.50
2022-12-28T06:44:30.749Z,99067.25
2022-12-28T06:47:00.027Z,99069.88
2022-12-28T06:49:29.786Z,99037.34
2022-12-28T06:51:58.809Z,99067.44
2022-12-28T06:54:28.100Z,99070.94
2022-12-28T06:56:57.325Z,99066.75
2022-12-28T06:59:28.507Z,99065.94
2022-12-28T07:01:57.910Z,99071.00
2022-12-28T07:04:27.134Z,99065.78
2022-12-28T07:06:56.138Z,99069.91
2022-12-28T07:09:25.313Z,99070.75
2022-12-28T07:11:59.979Z,99075.03
2022-12-28T07:14:31.890Z,99066.41
2022-12-28T07:17:01.483Z,99003.22
2022-12-28T07:19:30.959Z,98999.31
2022-12-28T07:22:05.739Z,99067.91
2022-12-28T07:24:34.995Z,99074.63
2022-12-28T07:27:04.164Z,99077.28
2022-12-28T07:29:35.382Z,99084.19
2022-12-28T07:32:16.171Z,99084.34
2022-12-28T07:34:46.019Z,99074.91
2022-12-28T07:37:15.179Z,99082.72
2022-12-28T07:39:44.516Z,99079.41
2022-12-28T07:42:13.743Z,99085.44
2022-12-28T07:44:49.947Z,99067.56
2022-12-28T07:47:19.576Z,99081.34
2022-12-28T07:49:48.684Z,99057.44
2022-12-28T07:52:17.842Z,99078.94
2022-12-28T07:54:46.970Z,99069.47
2022-12-28T07:57:16.260Z,99089.03
2022-12-28T07:59:47.369Z,99052.13
2022-12-28T08:02:21.711Z,99053.91
2022-12-28T08:04:52.349Z,99077.16
2022-12-28T08:07:21.797Z,99074.59
2022-12-28T08:09:50.988Z,99036.09
2022-12-28T08:12:20.872Z,99074.69
2022-12-28T08:14:52.040Z,99068.66
2022-12-28T08:17:21.487Z,99044.69
2022-12-28T08:19:51.507Z,99041.19
2022-12-28T08:22:20.888Z,99040.13
2022-12-28T08:24:50.063Z,99059.66
2022-12-28T08:27:19.408Z,99052.75
2022-12-28T08:29:48.681Z,99061.09
2022-12-28T08:32:19.863Z,99065.09
2022-12-28T08:34:49.222Z,99053.84
2022-12-28T08:37:20.166Z,99069.19
2022-12-28T08:39:49.453Z,99063.28
2022-12-28T08:42:23.533Z,99052.34
2022-12-28T08:44:52.773Z,99059.13
2022-12-28T08:47:24.254Z,99061.59
2022-12-28T08:49:53.453Z,99065.00
2022-12-28T08:52:24.336Z,99066.78
2022-12-28T08:54:58.504Z,99070.91
2022-12-28T08:57:29.566Z,99062.53
2022-12-28T09:00:03.808Z,99050.53
2022-12-28T09:02:35.685Z,99062.63
2022-12-28T09:05:05.224Z,99080.44
2022-12-28T09:07:34.439Z,99061.38
2022-12-28T09:10:03.521Z,99066.66
2022-12-28T09:12:37.781Z,99075.16
2022-12-28T09:15:08.478Z,99074.41
2022-12-28T09:17:39.658Z,99066.84
2022-12-28T09:20:09.946Z,99072.00
2022-12-28T09:22:39.033Z,99075.34
2022-12-28T09:25:09.358Z,99064.19
2022-12-28T09:27:38.648Z,99070.91
2022-12-28T09:30:09.576Z,99069.16
2022-12-28T09:32:40.701Z,99078.50
2022-12-28T09:35:10.189Z,99049.63
2022-12-28T09:37:39.263Z,99076.16
2022-12-28T09:40:11.029Z,99072.00
2022-12-28T09:42:44.243Z,99072.16
2022-12-28T09:45:15.015Z,99077.47
2022-12-28T09:47:51.386Z,99062.34
2022-12-28T09:50:30.529Z,99078.69
2022-12-28T09:53:28.994Z,99064.16
2022-12-28T09:58:49.207Z,99077.31
2022-12-28T10:01:20.326Z,99080.78
2022-12-28T10:03:51.699Z,99079.97
2022-12-28T10:06:26.164Z,99078.34
2022-12-28T10:08:58.075Z,99093.56
2022-12-28T10:11:37.662Z,99087.66
2022-12-28T10:14:20.019Z,99091.88
2022-12-28T10:16:55.462Z,99092.63
2022-12-28T10:19:28.898Z,99092.59
2022-12-28T10:22:07.913Z,99093.44
2022-12-28T10:24:37.863Z,99061.69
2022-12-28T10:27:14.781Z,99093.53
2022-12-28T10:29:45.658Z,99088.50
2022-12-28T10:35:01.948Z,99097.13
2022-12-28T10:37:36.809Z,99102.19
2022-12-28T10:40:27.246Z,99091.22
2022-12-28T10:42:58.690Z,99083.41
2022-12-28T10:45:38.383Z,99033.03
2022-12-28T10:48:16.774Z,99084.50
2022-12-28T10:50:53.728Z,99073.31
2022-12-28T10:53:28.100Z,99072.47
2022-12-28T10:56:09.730Z,99080.06
2022-12-28T10:58:39.083Z,99092.00
2022-12-28T11:01:18.670Z,99099.66
2022-12-28T11:04:01.483Z,99099.66
2022-12-28T11:06:34.387Z,99096.28
2022-12-28T11:09:23.403Z,99080.84
2022-12-28T11:11:54.598Z,99086.13
2022-12-28T11:14:35.382Z,99085.16
2022-12-28T11:17:18.156Z,99086.63
2022-12-28T11:19:48.545Z,99053.19
2022-12-28T11:22:24.237Z,99091.00
2022-12-28T11:24:53.762Z,99083.31
2022-12-28T11:27:25.269Z,99076.38
2022-12-28T11:29:56.239Z,99073.78
2022-12-28T11:32:38.477Z,99072.84
2022-12-28T11:35:14.172Z,99069.38
2022-12-28T11:37:53.551Z,99093.41
2022-12-28T11:40:59.014Z,99085.69
2022-12-28T11:43:55.171Z,99094.16
2022-12-28T11:46:41.873Z,99102.56
2022-12-28T11:49:33.023Z,99091.53
2022-12-28T11:52:47.725Z,99089.78
2022-12-28T11:55:46.500Z,99085.34
2022-12-28T11:58:50.326Z,99090.50
2022-12-28T12:01:44.389Z,99098.13
2022-12-28T12:04:42.574Z,99085.16
2022-12-28T12:07:24.699Z,99108.22
2022-12-28T12:10:35.634Z,99076.47
2022-12-28T12:13:40.442Z,99091.81
2022-12-28T12:16:22.099Z,99117.53
2022-12-28T12:18:59.287Z,99121.78
2022-12-28T12:21:36.102Z,99125.16
2022-12-28T12:24:17.999Z,99131.94
2022-12-28T12:26:52.725Z,99127.69
2022-12-28T12:29:28.765Z,99126.78
2022-12-28T12:32:08.814Z,99132.75
2022-12-28T12:34:44.405Z,99134.41
2022-12-28T12:37:38.755Z,99106.19
2022-12-28T12:40:36.498Z,99126.84
2022-12-28T12:46:36.232Z,99138.53
2022-12-28T12:54:47.067Z,99150.66
2022-12-28T12:57:28.098Z,99145.38
2022-12-28T13:00:07.092Z,99158.34
2022-12-28T13:02:58.312Z,99158.38
2022-12-28T13:05:30.623Z,99127.59
2022-12-28T13:08:02.196Z,99161.91
2022-12-28T13:10:36.694Z,99157.63
2022-12-28T13:13:07.388Z,99172.16
2022-12-28T13:15:45.929Z,99156.72
2022-12-28T13:21:22.260Z,99161.91
2022-12-28T13:23:52.743Z,99181.59
2022-12-28T13:26:33.808Z,99173.03
2022-12-28T13:29:05.204Z,99180.78
2022-12-28T13:31:36.841Z,99176.50
2022-12-28T13:34:15.690Z,99188.34
2022-12-28T13:36:50.554Z,99185.94
2022-12-28T13:39:21.524Z,99185.97
2022-12-28T13:42:00.634Z,99153.28
2022-12-28T13:44:37.267Z,99186.78
2022-12-28T13:47:11.553Z,99190.25
2022-12-28T13:49:47.211Z,99169.66
2022-12-28T13:52:22.683Z,99177.31
2022-12-28T13:54:56.257Z,99180.69
2022-12-28T13:57:46.728Z,99168.75
2022-12-28T14:00:19.894Z,99201.19
2022-12-28T14:02:51.266Z,99207.00
2022-12-28T14:05:24.724Z,99202.69
2022-12-28T14:07:56.727Z,99188.09
2022-12-28T14:10:25.894Z,99220.22
2022-12-28T14:12:58.943Z,99215.81
2022-12-28T14:15:28.366Z,99215.59
2022-12-28T14:17:58.152Z,99193.16
2022-12-28T14:20:27.457Z,99217.88
2022-12-28T14:22:56.829Z,99219.53
2022-12-28T14:25:26.376Z,99220.31
2022-12-28T14:28:05.883Z,99218.59
2022-12-28T14:30:41.432Z,99207.84
2022-12-28T14:33:22.388Z,99235.22
2022-12-28T14:35:56.460Z,99225.72
2022-12-28T14:41:20.632Z,99242.03
2022-12-28T14:43:57.421Z,99235.91
2022-12-28T14:46:35.621Z,99224.78
2022-12-28T14:49:36.261Z,99241.25
2022-12-28T14:52:37.074Z,99229.44
2022-12-28T14:55:21.888Z,99221.56
2022-12-28T14:57:59.858Z,99237.69
2022-12-28T15:00:32.744Z,99251.41
2022-12-28T15:03:16.649Z,99255.53
2022-12-28T15:05:50.943Z,99246.78
2022-12-28T15:08:22.458Z,99238.19
2022-12-28T15:10:54.146Z,99257.13
2022-12-28T15:13:24.447Z,99260.53
2022-12-28T15:16:03.829Z,99223.53
2022-12-28T15:18:33.876Z,99254.53
2022-12-28T15:21:06.682Z,99257.78
2022-12-28T15:23:36.753Z,99259.53
2022-12-28T15:26:13.842Z,99270.56
2022-12-28T15:28:43.437Z,99249.78
2022-12-28T15:31:17.519Z,99280.75
2022-12-28T15:33:47.622Z,99248.00
2022-12-28T15:36:19.498Z,99261.97
2022-12-28T15:38:49.575Z,99276.44
2022-12-28T15:41:38.241Z,99255.88
2022-12-28T15:44:07.896Z,99267.09
2022-12-28T15:46:39.127Z,99253.19
2022-12-28T15:49:09.402Z,99284.34
2022-12-28T15:51:38.506Z,99282.66
2022-12-28T15:54:08.292Z,99291.09
2022-12-28T15:56:40.125Z,99297.88
2022-12-28T15:59:13.601Z,99297.88
2022-12-28T16:01:47.010Z,99272.91
2022-12-28T16:04:21.641Z,99296.94
2022-12-28T16:06:52.091Z,99293.59
2022-12-28T16:09:21.466Z,99297.88
2022-12-28T16:11:55.114Z,99290.25
2022-12-28T16:14:24.797Z,99284.38
2022-12-28T16:16:55.947Z,99284.44
2022-12-28T16:19:25.709Z,99286.94
2022-12-28T16:22:00.414Z,99263.59
2022-12-28T16:24:30.475Z,99286.00
2022-12-28T16:27:12.118Z,99277.91
2022-12-28T16:29:41.589Z,99267.75
2022-12-28T16:32:12.648Z,99302.88
2022-12-28T16:34:41.859Z,99298.53
2022-12-28T16:37:11.370Z,99296.91
2022-12-28T16:39:40.614Z,99310.41
2022-12-28T16:42:14.803Z,99292.72
2022-12-28T16:44:44.099Z,99312.19
2022-12-28T16:47:15.143Z,99303.72
2022-12-28T16:49:46.643Z,99301.22
2022-12-28T16:52:20.769Z,99293.66
2022-12-28T16:54:50.532Z,99290.13
2022-12-28T16:57:19.751Z,99299.59
2022-12-28T16:59:48.992Z,99274.72
2022-12-28T17:02:20.226Z,99285.84
2022-12-28T17:04:56.060Z,99208.28
2022-12-28T17:07:30.402Z,99296.78
2022-12-28T17:09:59.703Z,99310.53
2022-12-28T17:12:39.078Z,99302.91
2022-12-28T17:15:10.067Z,99317.34
2022-12-28T17:17:51.478Z,99285.75
2022-12-28T17:20:21.811Z,99307.81
2022-12-28T17:22:56.294Z,99285.59
2022-12-28T17:25:25.538Z,99315.56
2022-12-28T17:27:55.389Z,99324.16
2022-12-28T17:30:24.826Z,99315.69
2022-12-28T17:33:01.569Z,99298.44
2022-12-28T17:35:30.998Z,99325.16
2022-12-28T17:38:01.561Z,99305.44
2022-12-28T17:40:30.805Z,99326.81
2022-12-28T17:43:00.001Z,99320.91
2022-12-28T17:45:29.465Z,99320.00
2022-12-28T17:48:00.541Z,99314.69
2022-12-28T17:50:35.476Z,99322.63
2022-12-28T17:53:04.739Z,99313.97
2022-12-28T17:55:36.499Z,99330.22
2022-12-28T17:58:05.839Z,99336.97
2022-12-28T18:00:35.040Z,99335.31
2022-12-28T18:03:06.232Z,99345.38
2022-12-28T18:05:36.312Z,99322.84
2022-12-28T18:08:05.770Z,99354.53
2022-12-28T18:10:35.046Z,99352.16
2022-12-28T18:13:04.425Z,99339.34
2022-12-28T18:15:35.364Z,99348.66
2022-12-28T18:18:11.975Z,99342.72
2022-12-28T18:20:46.747Z,99358.13
2022-12-28T18:23:16.238Z,99360.66
2022-12-28T18:25:45.415Z,99355.59
2022-12-28T18:28:14.780Z,99320.66
2022-12-28T18:30:43.943Z,99314.34
2022-12-28T18:33:26.736Z,99340.88
2022-12-28T18:36:02.885Z,99326.38
2022-12-28T18:38:34.077Z,99341.00
2022-12-28T18:41:03.686Z,99345.47
2022-12-28T18:43:37.988Z,99299.09
2022-12-28T18:46:11.424Z,99364.13
2022-12-28T18:48:43.911Z,99360.75
2022-12-28T18:51:19.592Z,99369.22
2022-12-28T18:53:53.877Z,99372.59
2022-12-28T18:56:23.714Z,99364.94
2022-12-28T18:58:54.186Z,99357.06
2022-12-28T19:02:05.184Z,99374.38
2022-12-28T19:04:26.836Z,99373.53
2022-12-28T19:06:56.330Z,99374.38
2022-12-28T19:09:25.497Z,99364.78
2022-12-28T19:12:00.184Z,99376.78
2022-12-28T19:14:34.487Z,99375.94
2022-12-28T19:19:40.688Z,99377.47
2022-12-28T19:22:09.993Z,99376.66
2022-12-28T19:24:39.255Z,99355.00
2022-12-28T19:27:08.724Z,99384.19
2022-12-28T19:29:37.882Z,99396.16
2022-12-28T19:32:08.057Z,99383.22
2022-12-28T19:34:37.296Z,99398.88
2022-12-28T19:37:08.392Z,99396.38
2022-12-28T19:39:37.742Z,99402.38
2022-12-28T19:42:07.006Z,99403.16
2022-12-28T19:44:36.222Z,99403.16
2022-12-28T19:47:05.369Z,99406.53
2022-12-28T19:49:34.685Z,99390.31
2022-12-28T19:52:04.251Z,99405.03
2022-12-28T19:54:41.394Z,99392.06
2022-12-28T19:57:10.636Z,99405.13
2022-12-28T19:59:40.236Z,99410.38
2022-12-28T20:02:09.720Z,99403.56
2022-12-28T20:04:39.009Z,99412.25
2022-12-28T20:07:08.165Z,99431.00
2022-12-28T20:09:40.190Z,99411.41
2022-12-28T20:12:09.795Z,99416.66
2022-12-28T20:14:38.900Z,99421.94
2022-12-28T20:17:08.035Z,99423.78
2022-12-28T20:19:42.019Z,99410.00
2022-12-28T20:22:11.321Z,99431.69
2022-12-28T20:24:43.188Z,99404.22
2022-12-28T20:27:18.787Z,99426.69
2022-12-28T20:29:47.878Z,99410.25
2022-12-28T20:32:16.992Z,99447.84
2022-12-28T20:34:46.040Z,99431.63
2022-12-28T20:37:15.284Z,99435.84
2022-12-28T20:39:46.482Z,99456.09
2022-12-28T20:42:29.185Z,99441.69
2022-12-28T20:44:59.383Z,99431.41
2022-12-28T20:47:28.457Z,99438.38
2022-12-28T20:49:57.653Z,99439.09
2022-12-28T20:52:31.909Z,99448.34
2022-12-28T20:55:03.082Z,99407.88
2022-12-28T20:57:32.646Z,99445.75
2022-12-28T21:00:01.747Z,99459.34
2022-12-28T21:02:33.080Z,99409.50
2022-12-28T21:05:02.618Z,99451.69
2022-12-28T21:07:32.930Z,99414.72
2022-12-28T21:10:04.166Z,99455.13
2022-12-28T21:12:33.501Z,99440.31
2022-12-28T21:15:02.675Z,99456.78
2022-12-28T21:17:37.298Z,99452.53
2022-12-28T21:20:17.763Z,99455.16
2022-12-28T21:22:47.070Z,99454.34
2022-12-28T21:25:18.637Z,99462.03
2022-12-28T21:27:48.021Z,99461.16
2022-12-28T21:30:17.351Z,99465.38
2022-12-28T21:32:50.943Z,99458.75
2022-12-28T21:35:20.203Z,99466.41
2022-12-28T21:37:49.351Z,99463.03
2022-12-28T21:40:20.565Z,99469.00
2022-12-28T21:42:50.393Z,99454.56
2022-12-28T21:45:19.741Z,99466.38
2022-12-28T21:47:49.215Z,99464.72
2022-12-28T21:50:18.359Z,99400.13
2022-12-28T21:52:47.529Z,99462.19
2022-12-28T21:55:30.007Z,99436.28
2022-12-28T21:58:01.264Z,99456.31
2022-12-28T22:01:00.394Z,99461.25
2022-12-28T22:03:42.653Z,99468.25
2022-12-28T22:06:11.601Z,99470.88
2022-12-28T22:08:53.653Z,99469.13
2022-12-28T22:11:35.947Z,99438.13
2022-12-28T22:14:07.704Z,99438.88
2022-12-28T22:16:42.135Z,99465.72
2022-12-28T22:19:11.692Z,99483.63
2022-12-28T22:21:40.991Z,99480.31
2022-12-28T22:24:10.131Z,99477.84
2022-12-28T22:26:39.465Z,99485.53
2022-12-28T22:29:10.530Z,99472.03
2022-12-28T22:31:40.377Z,99475.41
2022-12-28T22:34:09.796Z,99460.72
2022-12-28T22:36:44.129Z,99476.28
2022-12-28T22:39:13.314Z,99457.44
2022-12-28T22:41:42.439Z,99449.69
2022-12-28T22:44:18.663Z,99486.56
2022-12-28T22:46:47.703Z,99467.03
2022-12-28T22:49:16.820Z,99482.38
2022-12-28T22:51:46.085Z,99479.91
2022-12-28T22:54:15.334Z,99479.13
2022-12-28T22:56:54.591Z,99474.66
2022-12-28T22:59:25.853Z,99458.34
2022-12-28T23:01:55.614Z,99479.91
2022-12-28T23:04:24.695Z,99491.91
2022-12-28T23:06:56.329Z,99480.63
2022-12-28T23:09:39.421Z,99496.94
2022-12-28T23:12:09.017Z,99495.97
2022-12-28T23:14:58.074Z,99485.41
2022-12-28T23:17:27.891Z,99475.16
2022-12-28T23:20:09.882Z,99500.13
2022-12-28T23:22:51.827Z,99503.53
2022-12-28T23:25:41.170Z,99485.31
2022-12-28T23:28:14.153Z,99497.47
2022-12-28T23:30:47.700Z,99493.03
2022-12-28T23:33:17.414Z,99505.91
2022-12-28T23:35:46.631Z,99511.78
2022-12-28T23:38:15.880Z,99526.25
2022-12-28T23:41:10.485Z,99488.47
2022-12-28T23:43:39.752Z,99473.00
2022-12-28T23:46:10.916Z,99515.34
2022-12-28T23:48:40.327Z,99519.66
2022-12-28T23:51:09.728Z,99512.91
2022-12-28T23:53:44.436Z,99516.47
2022-12-28T23:56:13.631Z,99518.94
2022-12-28T23:58:50.807Z,99519.72
